sensor_id;sensor_type;location;lat;lon;timestamp;P1;durP1;ratioP1;P2;durP2;ratioP2
781;SDS011;374;52.568;13.402;2022-11-15T00:00:53;36.30;;;27.63;;
781;SDS011;374;52.568;13.402;2022-11-15T00:03:20;38.60;;;27.70;;
781;SDS011;374;52.568;13.402;2022-11-15T00:05:50;34.40;;;27.10;;
781;SDS011;374;52.568;13.402;2022-11-15T00:08:16;40.53;;;27.00;;
781;SDS011;374;52.568;13.402;2022-11-15T00:10:42;38.53;;;27.20;;
781;SDS011;374;52.568;13.402;2022-11-15T00:13:08;40.67;;;27.60;;
781;SDS011;374;52.568;13.402;2022-11-15T00:15:41;39.90;;;28.27;;
781;SDS011;374;52.568;13.402;2022-11-15T00:18:12;41.90;;;27.90;;
781;SDS011;374;52.568;13.402;2022-11-15T00:20:38;39.40;;;27.40;;
781;SDS011;374;52.568;13.402;2022-11-15T00:23:04;35.40;;;26.83;;
781;SDS011;374;52.568;13.402;2022-11-15T00:25:30;40.37;;;28.07;;
781;SDS011;374;52.568;13.402;2022-11-15T00:27:56;39.63;;;27.50;;
781;SDS011;374;52.568;13.402;2022-11-15T00:30:22;42.57;;;28.03;;
781;SDS011;374;52.568;13.402;2022-11-15T00:32:47;38.03;;;26.80;;
781;SDS011;374;52.568;13.402;2022-11-15T00:35:13;41.07;;;27.60;;
781;SDS011;374;52.568;13.402;2022-11-15T00:37:38;42.67;;;29.40;;
781;SDS011;374;52.568;13.402;2022-11-15T00:40:04;36.83;;;27.73;;
781;SDS011;374;52.568;13.402;2022-11-15T00:42:33;38.60;;;27.07;;
781;SDS011;374;52.568;13.402;2022-11-15T00:44:58;38.87;;;28.20;;
781;SDS011;374;52.568;13.402;2022-11-15T00:47:24;37.17;;;27.50;;
781;SDS011;374;52.568;13.402;2022-11-15T00:49:52;39.83;;;28.47;;
781;SDS011;374;52.568;13.402;2022-11-15T00:52:20;39.67;;;28.60;;
781;SDS011;374;52.568;13.402;2022-11-15T00:54:46;43.47;;;28.00;;
781;SDS011;374;52.568;13.402;2022-11-15T00:57:11;41.67;;;29.70;;
781;SDS011;374;52.568;13.402;2022-11-15T00:59:39;43.70;;;29.60;;
781;SDS011;374;52.568;13.402;2022-11-15T01:02:05;37.53;;;26.53;;
781;SDS011;374;52.568;13.402;2022-11-15T01:04:30;41.77;;;29.00;;
781;SDS011;374;52.568;13.402;2022-11-15T01:06:56;40.73;;;29.70;;
781;SDS011;374;52.568;13.402;2022-11-15T01:09:21;37.73;;;25.87;;
781;SDS011;374;52.568;13.402;2022-11-15T01:11:50;41.07;;;29.33;;
781;SDS011;374;52.568;13.402;2022-11-15T01:14:15;41.60;;;28.77;;
781;SDS011;374;52.568;13.402;2022-11-15T01:16:41;39.80;;;28.10;;
781;SDS011;374;52.568;13.402;2022-11-15T01:19:07;44.77;;;28.30;;
781;SDS011;374;52.568;13.402;2022-11-15T01:21:33;41.43;;;28.03;;
781;SDS011;374;52.568;13.402;2022-11-15T01:23:58;37.97;;;28.43;;
781;SDS011;374;52.568;13.402;2022-11-15T01:26:24;41.40;;;29.60;;
781;SDS011;374;52.568;13.402;2022-11-15T01:28:50;41.23;;;28.70;;
781;SDS011;374;52.568;13.402;2022-11-15T01:31:16;38.53;;;29.33;;
781;SDS011;374;52.568;13.402;2022-11-15T01:33:44;42.10;;;28.67;;
781;SDS011;374;52.568;13.402;2022-11-15T01:36:10;37.80;;;27.90;;
781;SDS011;374;52.568;13.402;2022-11-15T01:38:42;37.80;;;26.20;;
781;SDS011;374;52.568;13.402;2022-11-15T01:41:18;41.13;;;28.00;;
781;SDS011;374;52.568;13.402;2022-11-15T01:43:46;41.37;;;28.50;;
781;SDS011;374;52.568;13.402;2022-11-15T01:46:22;46.40;;;29.70;;
781;SDS011;374;52.568;13.402;2022-11-15T01:48:52;40.57;;;28.93;;
781;SDS011;374;52.568;13.402;2022-11-15T01:51:21;38.37;;;28.10;;
781;SDS011;374;52.568;13.402;2022-11-15T01:53:50;38.80;;;26.90;;
781;SDS011;374;52.568;13.402;2022-11-15T01:56:21;38.93;;;27.80;;
781;SDS011;374;52.568;13.402;2022-11-15T01:58:52;37.43;;;27.47;;
781;SDS011;374;52.568;13.402;2022-11-15T02:01:20;37.87;;;28.60;;
781;SDS011;374;52.568;13.402;2022-11-15T02:03:49;45.20;;;28.60;;
781;SDS011;374;52.568;13.402;2022-11-15T02:06:22;40.70;;;27.73;;
781;SDS011;374;52.568;13.402;2022-11-15T02:08:48;42.23;;;29.50;;
781;SDS011;374;52.568;13.402;2022-11-15T02:11:17;40.80;;;28.27;;
781;SDS011;374;52.568;13.402;2022-11-15T02:13:43;41.90;;;29.87;;
781;SDS011;374;52.568;13.402;2022-11-15T02:27:28;36.57;;;26.33;;
781;SDS011;374;52.568;13.402;2022-11-15T02:30:22;40.20;;;28.07;;
781;SDS011;374;52.568;13.402;2022-11-15T02:32:57;41.47;;;28.20;;
781;SDS011;374;52.568;13.402;2022-11-15T02:38:22;41.87;;;26.90;;
781;SDS011;374;52.568;13.402;2022-11-15T02:40:57;40.70;;;28.30;;
781;SDS011;374;52.568;13.402;2022-11-15T02:43:33;36.03;;;28.30;;
781;SDS011;374;52.568;13.402;2022-11-15T02:46:28;35.57;;;26.80;;
781;SDS011;374;52.568;13.402;2022-11-15T02:49:18;41.43;;;28.43;;
781;SDS011;374;52.568;13.402;2022-11-15T02:51:45;38.43;;;27.87;;
781;SDS011;374;52.568;13.402;2022-11-15T02:54:14;37.13;;;27.43;;
781;SDS011;374;52.568;13.402;2022-11-15T02:56:44;41.47;;;27.97;;
781;SDS011;374;52.568;13.402;2022-11-15T03:07:33;38.70;;;27.43;;
781;SDS011;374;52.568;13.402;2022-11-15T03:10:11;39.37;;;28.33;;
781;SDS011;374;52.568;13.402;2022-11-15T03:12:44;40.43;;;26.97;;
781;SDS011;374;52.568;13.402;2022-11-15T03:15:32;38.73;;;28.70;;
781;SDS011;374;52.568;13.402;2022-11-15T03:20:58;42.67;;;28.73;;
781;SDS011;374;52.568;13.402;2022-11-15T03:23:30;37.30;;;26.80;;
781;SDS011;374;52.568;13.402;2022-11-15T03:26:00;42.60;;;29.40;;
781;SDS011;374;52.568;13.402;2022-11-15T03:28:34;37.77;;;26.33;;
781;SDS011;374;52.568;13.402;2022-11-15T03:31:19;40.87;;;27.90;;
781;SDS011;374;52.568;13.402;2022-11-15T03:34:06;41.70;;;29.47;;
781;SDS011;374;52.568;13.402;2022-11-15T03:36:35;38.70;;;28.13;;
781;SDS011;374;52.568;13.402;2022-11-15T03:39:02;41.33;;;27.90;;
781;SDS011;374;52.568;13.402;2022-11-15T03:41:35;39.23;;;27.67;;
781;SDS011;374;52.568;13.402;2022-11-15T03:44:24;41.93;;;27.13;;
781;SDS011;374;52.568;13.402;2022-11-15T03:47:16;38.93;;;27.00;;
781;SDS011;374;52.568;13.402;2022-11-15T03:49:52;42.80;;;28.17;;
781;SDS011;374;52.568;13.402;2022-11-15T03:52:22;39.93;;;27.60;;
781;SDS011;374;52.568;13.402;2022-11-15T03:54:53;42.57;;;27.43;;
781;SDS011;374;52.568;13.402;2022-11-15T03:57:20;37.20;;;26.87;;
781;SDS011;374;52.568;13.402;2022-11-15T03:59:46;34.37;;;25.70;;
781;SDS011;374;52.568;13.402;2022-11-15T04:02:12;43.03;;;28.33;;
781;SDS011;374;52.568;13.402;2022-11-15T04:04:38;36.00;;;26.60;;
781;SDS011;374;52.568;13.402;2022-11-15T04:07:04;41.43;;;27.23;;
781;SDS011;374;52.568;13.402;2022-11-15T04:09:29;37.20;;;25.97;;
781;SDS011;374;52.568;13.402;2022-11-15T04:11:55;35.50;;;26.43;;
781;SDS011;374;52.568;13.402;2022-11-15T04:14:20;37.03;;;26.50;;
781;SDS011;374;52.568;13.402;2022-11-15T04:16:46;37.87;;;26.63;;
781;SDS011;374;52.568;13.402;2022-11-15T04:19:11;39.70;;;28.50;;
781;SDS011;374;52.568;13.402;2022-11-15T04:21:55;38.23;;;27.10;;
781;SDS011;374;52.568;13.402;2022-11-15T04:24:39;36.73;;;26.47;;
781;SDS011;374;52.568;13.402;2022-11-15T04:27:05;36.90;;;25.97;;
781;SDS011;374;52.568;13.402;2022-11-15T04:29:30;43.77;;;27.20;;
781;SDS011;374;52.568;13.402;2022-11-15T04:31:59;41.77;;;27.20;;
781;SDS011;374;52.568;13.402;2022-11-15T04:34:29;38.00;;;25.60;;
781;SDS011;374;52.568;13.402;2022-11-15T04:36:55;44.47;;;29.33;;
781;SDS011;374;52.568;13.402;2022-11-15T04:39:40;40.90;;;28.20;;
781;SDS011;374;52.568;13.402;2022-11-15T04:42:06;39.60;;;26.90;;
781;SDS011;374;52.568;13.402;2022-11-15T04:44:33;42.27;;;28.00;;
781;SDS011;374;52.568;13.402;2022-11-15T04:46:58;35.90;;;26.50;;
781;SDS011;374;52.568;13.402;2022-11-15T04:49:24;39.10;;;28.13;;
781;SDS011;374;52.568;13.402;2022-11-15T04:51:52;39.87;;;27.00;;
781;SDS011;374;52.568;13.402;2022-11-15T04:54:18;41.43;;;27.87;;
781;SDS011;374;52.568;13.402;2022-11-15T04:56:43;39.77;;;27.93;;
781;SDS011;374;52.568;13.402;2022-11-15T04:59:09;42.57;;;29.00;;
781;SDS011;374;52.568;13.402;2022-11-15T05:01:34;38.37;;;26.73;;
781;SDS011;374;52.568;13.402;2022-11-15T05:04:00;37.13;;;26.83;;
781;SDS011;374;52.568;13.402;2022-11-15T05:06:43;36.33;;;24.87;;
781;SDS011;374;52.568;13.402;2022-11-15T05:09:09;39.53;;;28.50;;
781;SDS011;374;52.568;13.402;2022-11-15T05:11:35;33.03;;;24.03;;
781;SDS011;374;52.568;13.402;2022-11-15T05:14:00;39.33;;;26.30;;
781;SDS011;374;52.568;13.402;2022-11-15T05:16:26;37.63;;;26.27;;
781;SDS011;374;52.568;13.402;2022-11-15T05:18:52;37.33;;;28.43;;
781;SDS011;374;52.568;13.402;2022-11-15T05:21:18;39.97;;;28.80;;
781;SDS011;374;52.568;13.402;2022-11-15T05:23:44;41.40;;;28.53;;
781;SDS011;374;52.568;13.402;2022-11-15T05:26:10;38.90;;;27.53;;
781;SDS011;374;52.568;13.402;2022-11-15T05:28:36;39.97;;;27.20;;
781;SDS011;374;52.568;13.402;2022-11-15T05:31:03;38.23;;;25.77;;
781;SDS011;374;52.568;13.402;2022-11-15T05:33:30;37.17;;;25.73;;
781;SDS011;374;52.568;13.402;2022-11-15T05:36:06;35.13;;;26.63;;
781;SDS011;374;52.568;13.402;2022-11-15T05:38:38;35.20;;;25.43;;
781;SDS011;374;52.568;13.402;2022-11-15T05:41:03;42.37;;;29.20;;
781;SDS011;374;52.568;13.402;2022-11-15T05:43:30;36.90;;;27.53;;
781;SDS011;374;52.568;13.402;2022-11-15T05:46:00;41.47;;;28.27;;
781;SDS011;374;52.568;13.402;2022-11-15T05:48:27;43.50;;;28.77;;
781;SDS011;374;52.568;13.402;2022-11-15T05:50:53;43.53;;;28.43;;
781;SDS011;374;52.568;13.402;2022-11-15T05:53:19;38.23;;;27.70;;
781;SDS011;374;52.568;13.402;2022-11-15T05:55:46;38.97;;;26.70;;
781;SDS011;374;52.568;13.402;2022-11-15T05:58:12;37.00;;;26.03;;
781;SDS011;374;52.568;13.402;2022-11-15T06:00:45;38.87;;;26.70;;
781;SDS011;374;52.568;13.402;2022-11-15T06:03:11;43.27;;;27.97;;
781;SDS011;374;52.568;13.402;2022-11-15T06:05:38;46.37;;;28.80;;
781;SDS011;374;52.568;13.402;2022-11-15T06:08:04;46.97;;;27.80;;
781;SDS011;374;52.568;13.402;2022-11-15T06:10:30;46.10;;;29.40;;
781;SDS011;374;52.568;13.402;2022-11-15T06:12:59;47.47;;;30.80;;
781;SDS011;374;52.568;13.402;2022-11-15T06:15:27;50.47;;;31.70;;
781;SDS011;374;52.568;13.402;2022-11-15T06:17:57;44.63;;;29.40;;
781;SDS011;374;52.568;13.402;2022-11-15T06:20:23;44.60;;;29.07;;
781;SDS011;374;52.568;13.402;2022-11-15T06:22:50;45.90;;;30.10;;
781;SDS011;374;52.568;13.402;2022-11-15T06:25:15;41.27;;;29.57;;
781;SDS011;374;52.568;13.402;2022-11-15T06:27:41;40.77;;;27.10;;
781;SDS011;374;52.568;13.402;2022-11-15T06:30:06;43.40;;;28.30;;
781;SDS011;374;52.568;13.402;2022-11-15T06:32:32;37.80;;;28.70;;
781;SDS011;374;52.568;13.402;2022-11-15T06:34:58;42.43;;;27.73;;
781;SDS011;374;52.568;13.402;2022-11-15T06:37:23;38.10;;;26.30;;
781;SDS011;374;52.568;13.402;2022-11-15T06:39:49;41.87;;;26.80;;
781;SDS011;374;52.568;13.402;2022-11-15T06:42:14;43.00;;;27.10;;
781;SDS011;374;52.568;13.402;2022-11-15T06:44:44;42.93;;;30.33;;
781;SDS011;374;52.568;13.402;2022-11-15T06:47:09;41.80;;;29.17;;
781;SDS011;374;52.568;13.402;2022-11-15T06:49:35;40.67;;;27.17;;
781;SDS011;374;52.568;13.402;2022-11-15T06:52:00;39.33;;;26.93;;
781;SDS011;374;52.568;13.402;2022-11-15T06:54:26;37.27;;;25.63;;
781;SDS011;374;52.568;13.402;2022-11-15T06:56:51;42.20;;;28.17;;
781;SDS011;374;52.568;13.402;2022-11-15T06:59:17;46.70;;;31.70;;
781;SDS011;374;52.568;13.402;2022-11-15T07:01:42;39.93;;;27.70;;
781;SDS011;374;52.568;13.402;2022-11-15T07:04:08;38.20;;;27.03;;
781;SDS011;374;52.568;13.402;2022-11-15T07:06:33;44.30;;;27.90;;
781;SDS011;374;52.568;13.402;2022-11-15T07:08:59;39.20;;;27.50;;
781;SDS011;374;52.568;13.402;2022-11-15T07:11:24;44.80;;;27.93;;
781;SDS011;374;52.568;13.402;2022-11-15T07:13:50;39.03;;;27.53;;
781;SDS011;374;52.568;13.402;2022-11-15T07:16:18;37.70;;;27.60;;
781;SDS011;374;52.568;13.402;2022-11-15T07:18:44;38.03;;;25.63;;
781;SDS011;374;52.568;13.402;2022-11-15T07:21:10;43.67;;;28.37;;
781;SDS011;374;52.568;13.402;2022-11-15T07:23:36;42.63;;;27.90;;
781;SDS011;374;52.568;13.402;2022-11-15T07:26:06;44.37;;;29.90;;
781;SDS011;374;52.568;13.402;2022-11-15T07:28:32;38.90;;;29.03;;
781;SDS011;374;52.568;13.402;2022-11-15T07:31:01;38.97;;;28.03;;
781;SDS011;374;52.568;13.402;2022-11-15T07:33:31;38.83;;;28.30;;
781;SDS011;374;52.568;13.402;2022-11-15T07:36:02;38.50;;;28.23;;
781;SDS011;374;52.568;13.402;2022-11-15T07:38:28;36.70;;;26.23;;
781;SDS011;374;52.568;13.402;2022-11-15T07:40:58;39.20;;;26.20;;
781;SDS011;374;52.568;13.402;2022-11-15T07:43:24;40.37;;;28.33;;
781;SDS011;374;52.568;13.402;2022-11-15T07:45:54;38.63;;;28.87;;
781;SDS011;374;52.568;13.402;2022-11-15T07:48:20;46.77;;;27.63;;
781;SDS011;374;52.568;13.402;2022-11-15T07:50:46;38.40;;;27.50;;
781;SDS011;374;52.568;13.402;2022-11-15T07:53:11;42.67;;;26.80;;
781;SDS011;374;52.568;13.402;2022-11-15T07:55:39;40.90;;;28.57;;
781;SDS011;374;52.568;13.402;2022-11-15T07:58:06;36.23;;;25.47;;
781;SDS011;374;52.568;13.402;2022-11-15T08:00:34;35.90;;;26.33;;
781;SDS011;374;52.568;13.402;2022-11-15T08:03:01;37.53;;;25.97;;
781;SDS011;374;52.568;13.402;2022-11-15T08:05:35;33.90;;;24.93;;
781;SDS011;374;52.568;13.402;2022-11-15T08:08:02;36.77;;;27.50;;
781;SDS011;374;52.568;13.402;2022-11-15T08:10:28;37.37;;;25.67;;
781;SDS011;374;52.568;13.402;2022-11-15T08:12:58;37.00;;;25.40;;
781;SDS011;374;52.568;13.402;2022-11-15T08:15:29;38.13;;;26.30;;
781;SDS011;374;52.568;13.402;2022-11-15T08:17:55;35.13;;;24.80;;
781;SDS011;374;52.568;13.402;2022-11-15T08:20:29;35.63;;;25.57;;
781;SDS011;374;52.568;13.402;2022-11-15T08:22:58;32.30;;;24.23;;
781;SDS011;374;52.568;13.402;2022-11-15T08:25:25;34.50;;;25.03;;
781;SDS011;374;52.568;13.402;2022-11-15T08:27:53;31.13;;;24.10;;
781;SDS011;374;52.568;13.402;2022-11-15T08:30:19;31.90;;;24.03;;
781;SDS011;374;52.568;13.402;2022-11-15T08:32:45;38.17;;;25.20;;
781;SDS011;374;52.568;13.402;2022-11-15T08:35:10;31.83;;;24.37;;
781;SDS011;374;52.568;13.402;2022-11-15T08:37:36;33.63;;;24.20;;
781;SDS011;374;52.568;13.402;2022-11-15T08:40:02;34.37;;;24.57;;
781;SDS011;374;52.568;13.402;2022-11-15T08:42:28;35.47;;;23.57;;
781;SDS011;374;52.568;13.402;2022-11-15T08:44:56;33.67;;;25.23;;
781;SDS011;374;52.568;13.402;2022-11-15T08:47:21;35.13;;;24.27;;
781;SDS011;374;52.568;13.402;2022-11-15T08:49:47;36.87;;;26.13;;
781;SDS011;374;52.568;13.402;2022-11-15T08:52:15;41.67;;;25.53;;
781;SDS011;374;52.568;13.402;2022-11-15T08:54:41;34.60;;;24.67;;
781;SDS011;374;52.568;13.402;2022-11-15T08:57:06;31.80;;;23.40;;
781;SDS011;374;52.568;13.402;2022-11-15T08:59:34;31.57;;;23.03;;
781;SDS011;374;52.568;13.402;2022-11-15T09:02:00;31.60;;;23.63;;
781;SDS011;374;52.568;13.402;2022-11-15T09:04:26;32.30;;;23.00;;
781;SDS011;374;52.568;13.402;2022-11-15T09:06:51;32.43;;;21.83;;
781;SDS011;374;52.568;13.402;2022-11-15T09:09:17;31.67;;;22.90;;
781;SDS011;374;52.568;13.402;2022-11-15T09:11:42;33.17;;;22.33;;
781;SDS011;374;52.568;13.402;2022-11-15T09:14:10;34.83;;;21.77;;
781;SDS011;374;52.568;13.402;2022-11-15T09:16:36;33.13;;;23.37;;
781;SDS011;374;52.568;13.402;2022-11-15T09:19:01;37.30;;;22.97;;
781;SDS011;374;52.568;13.402;2022-11-15T09:21:28;34.50;;;22.27;;
781;SDS011;374;52.568;13.402;2022-11-15T09:23:54;32.37;;;24.90;;
781;SDS011;374;52.568;13.402;2022-11-15T09:26:20;32.00;;;23.30;;
781;SDS011;374;52.568;13.402;2022-11-15T09:28:46;32.17;;;22.60;;
781;SDS011;374;52.568;13.402;2022-11-15T09:31:11;30.30;;;22.60;;
781;SDS011;374;52.568;13.402;2022-11-15T09:33:37;32.67;;;24.13;;
781;SDS011;374;52.568;13.402;2022-11-15T09:36:03;35.47;;;24.17;;
781;SDS011;374;52.568;13.402;2022-11-15T09:38:31;32.53;;;23.67;;
781;SDS011;374;52.568;13.402;2022-11-15T09:41:15;35.47;;;24.83;;
781;SDS011;374;52.568;13.402;2022-11-15T09:44:08;34.97;;;23.93;;
781;SDS011;374;52.568;13.402;2022-11-15T09:49:56;30.97;;;21.80;;
781;SDS011;374;52.568;13.402;2022-11-15T09:52:24;36.60;;;24.47;;
781;SDS011;374;52.568;13.402;2022-11-15T09:54:50;33.70;;;23.00;;
781;SDS011;374;52.568;13.402;2022-11-15T10:00:06;30.00;;;21.33;;
781;SDS011;374;52.568;13.402;2022-11-15T10:03:08;32.10;;;22.13;;
781;SDS011;374;52.568;13.402;2022-11-15T10:05:31;25.97;;;20.00;;
781;SDS011;374;52.568;13.402;2022-11-15T10:10:55;28.60;;;21.23;;
781;SDS011;374;52.568;13.402;2022-11-15T10:13:43;29.50;;;19.60;;
781;SDS011;374;52.568;13.402;2022-11-15T10:19:16;28.77;;;20.77;;
781;SDS011;374;52.568;13.402;2022-11-15T10:22:16;32.13;;;20.67;;
781;SDS011;374;52.568;13.402;2022-11-15T10:24:35;25.17;;;19.20;;
781;SDS011;374;52.568;13.402;2022-11-15T10:27:09;28.33;;;20.63;;
781;SDS011;374;52.568;13.402;2022-11-15T10:29:45;27.60;;;20.47;;
781;SDS011;374;52.568;13.402;2022-11-15T10:32:13;23.83;;;19.60;;
781;SDS011;374;52.568;13.402;2022-11-15T10:34:41;26.00;;;19.00;;
781;SDS011;374;52.568;13.402;2022-11-15T10:37:10;22.27;;;17.17;;
781;SDS011;374;52.568;13.402;2022-11-15T10:39:36;21.97;;;16.90;;
781;SDS011;374;52.568;13.402;2022-11-15T10:45:08;25.20;;;18.80;;
781;SDS011;374;52.568;13.402;2022-11-15T10:47:52;28.23;;;18.67;;
781;SDS011;374;52.568;13.402;2022-11-15T10:50:28;23.00;;;17.73;;
781;SDS011;374;52.568;13.402;2022-11-15T10:52:56;23.87;;;18.43;;
781;SDS011;374;52.568;13.402;2022-11-15T10:55:27;23.37;;;18.80;;
781;SDS011;374;52.568;13.402;2022-11-15T10:58:02;28.13;;;17.37;;
781;SDS011;374;52.568;13.402;2022-11-15T11:03:45;33.23;;;19.37;;
781;SDS011;374;52.568;13.402;2022-11-15T11:06:24;23.43;;;17.97;;
781;SDS011;374;52.568;13.402;2022-11-15T11:09:00;25.40;;;18.60;;
781;SDS011;374;52.568;13.402;2022-11-15T11:11:44;25.50;;;19.13;;
781;SDS011;374;52.568;13.402;2022-11-15T11:14:12;28.00;;;20.03;;
781;SDS011;374;52.568;13.402;2022-11-15T11:16:45;27.23;;;20.50;;
781;SDS011;374;52.568;13.402;2022-11-15T11:27:50;28.37;;;19.60;;
781;SDS011;374;52.568;13.402;2022-11-15T11:33:01;24.77;;;19.53;;
781;SDS011;374;52.568;13.402;2022-11-15T11:44:05;25.20;;;20.70;;
781;SDS011;374;52.568;13.402;2022-11-15T11:46:59;25.30;;;20.13;;
781;SDS011;374;52.568;13.402;2022-11-15T11:49:42;26.47;;;18.93;;
781;SDS011;374;52.568;13.402;2022-11-15T11:52:28;23.63;;;18.73;;
781;SDS011;374;52.568;13.402;2022-11-15T11:55:15;30.30;;;20.33;;
781;SDS011;374;52.568;13.402;2022-11-15T12:00:43;28.67;;;18.47;;
781;SDS011;374;52.568;13.402;2022-11-15T12:03:33;26.37;;;19.70;;
781;SDS011;374;52.568;13.402;2022-11-15T12:09:04;26.40;;;19.30;;
781;SDS011;374;52.568;13.402;2022-11-15T12:14:28;25.43;;;20.23;;
781;SDS011;374;52.568;13.402;2022-11-15T12:17:05;23.30;;;18.50;;
781;SDS011;374;52.568;13.402;2022-11-15T12:19:32;27.43;;;19.27;;
781;SDS011;374;52.568;13.402;2022-11-15T12:24:45;23.70;;;19.03;;
781;SDS011;374;52.568;13.402;2022-11-15T12:27:26;24.63;;;19.67;;
781;SDS011;374;52.568;13.402;2022-11-15T12:29:56;22.60;;;17.67;;
781;SDS011;374;52.568;13.402;2022-11-15T12:32:32;23.27;;;18.17;;
781;SDS011;374;52.568;13.402;2022-11-15T12:35:01;23.97;;;17.60;;
781;SDS011;374;52.568;13.402;2022-11-15T12:42:42;24.57;;;17.43;;
781;SDS011;374;52.568;13.402;2022-11-15T12:45:35;21.90;;;17.23;;
781;SDS011;374;52.568;13.402;2022-11-15T12:50:53;24.60;;;18.80;;
781;SDS011;374;52.568;13.402;2022-11-15T13:06:34;21.53;;;17.00;;
781;SDS011;374;52.568;13.402;2022-11-15T13:09:52;21.83;;;15.47;;
781;SDS011;374;52.568;13.402;2022-11-15T13:17:03;22.80;;;17.83;;
781;SDS011;374;52.568;13.402;2022-11-15T13:20:37;25.17;;;16.67;;
781;SDS011;374;52.568;13.402;2022-11-15T13:22:50;21.10;;;16.50;;
781;SDS011;374;52.568;13.402;2022-11-15T13:30:36;22.03;;;17.27;;
781;SDS011;374;52.568;13.402;2022-11-15T13:33:15;21.97;;;16.60;;
781;SDS011;374;52.568;13.402;2022-11-15T13:35:48;16.83;;;13.33;;
781;SDS011;374;52.568;13.402;2022-11-15T13:40:49;27.47;;;17.23;;
781;SDS011;374;52.568;13.402;2022-11-15T13:43:25;20.33;;;14.20;;
781;SDS011;374;52.568;13.402;2022-11-15T13:46:09;19.00;;;15.03;;
781;SDS011;374;52.568;13.402;2022-11-15T13:48:37;20.83;;;15.23;;
781;SDS011;374;52.568;13.402;2022-11-15T13:51:05;19.40;;;14.33;;
781;SDS011;374;52.568;13.402;2022-11-15T13:53:38;22.30;;;15.80;;
781;SDS011;374;52.568;13.402;2022-11-15T13:56:06;20.50;;;16.50;;
781;SDS011;374;52.568;13.402;2022-11-15T13:58:32;24.20;;;16.83;;
781;SDS011;374;52.568;13.402;2022-11-15T14:01:01;21.70;;;17.23;;
781;SDS011;374;52.568;13.402;2022-11-15T14:03:32;27.67;;;17.43;;
781;SDS011;374;52.568;13.402;2022-11-15T14:06:04;19.47;;;16.23;;
781;SDS011;374;52.568;13.402;2022-11-15T14:08:32;21.97;;;17.30;;
781;SDS011;374;52.568;13.402;2022-11-15T14:11:17;21.87;;;16.57;;
781;SDS011;374;52.568;13.402;2022-11-15T14:14:04;23.27;;;17.03;;
781;SDS011;374;52.568;13.402;2022-11-15T14:16:57;25.77;;;17.13;;
781;SDS011;374;52.568;13.402;2022-11-15T14:22:08;21.10;;;16.30;;
781;SDS011;374;52.568;13.402;2022-11-15T14:25:04;22.30;;;17.30;;
781;SDS011;374;52.568;13.402;2022-11-15T14:27:32;21.50;;;17.70;;
781;SDS011;374;52.568;13.402;2022-11-15T14:29:58;20.43;;;17.07;;
781;SDS011;374;52.568;13.402;2022-11-15T14:32:24;24.83;;;18.13;;
781;SDS011;374;52.568;13.402;2022-11-15T14:34:55;21.73;;;17.30;;
781;SDS011;374;52.568;13.402;2022-11-15T14:37:24;22.00;;;18.70;;
781;SDS011;374;52.568;13.402;2022-11-15T14:39:57;22.87;;;18.07;;
781;SDS011;374;52.568;13.402;2022-11-15T14:42:23;27.80;;;20.47;;
781;SDS011;374;52.568;13.402;2022-11-15T14:44:49;24.83;;;18.10;;
781;SDS011;374;52.568;13.402;2022-11-15T14:47:15;23.73;;;18.00;;
781;SDS011;374;52.568;13.402;2022-11-15T14:49:42;24.33;;;19.90;;
781;SDS011;374;52.568;13.402;2022-11-15T14:52:21;23.10;;;19.43;;
781;SDS011;374;52.568;13.402;2022-11-15T14:54:53;26.10;;;18.10;;
781;SDS011;374;52.568;13.402;2022-11-15T14:57:19;24.10;;;19.30;;
781;SDS011;374;52.568;13.402;2022-11-15T14:59:45;22.90;;;18.73;;
781;SDS011;374;52.568;13.402;2022-11-15T15:02:21;29.20;;;18.67;;
781;SDS011;374;52.568;13.402;2022-11-15T15:04:48;24.63;;;18.50;;
781;SDS011;374;52.568;13.402;2022-11-15T15:07:15;23.37;;;19.53;;
781;SDS011;374;52.568;13.402;2022-11-15T15:09:41;25.80;;;20.80;;
781;SDS011;374;52.568;13.402;2022-11-15T15:12:17;24.23;;;18.47;;
781;SDS011;374;52.568;13.402;2022-11-15T15:14:45;25.37;;;18.87;;
781;SDS011;374;52.568;13.402;2022-11-15T15:17:12;25.40;;;18.83;;
781;SDS011;374;52.568;13.402;2022-11-15T15:19:38;25.20;;;19.07;;
781;SDS011;374;52.568;13.402;2022-11-15T15:22:04;27.63;;;19.70;;
781;SDS011;374;52.568;13.402;2022-11-15T15:24:30;23.13;;;17.93;;
781;SDS011;374;52.568;13.402;2022-11-15T15:29:50;23.77;;;18.27;;
781;SDS011;374;52.568;13.402;2022-11-15T15:32:27;25.30;;;20.10;;
781;SDS011;374;52.568;13.402;2022-11-15T15:34:56;26.20;;;19.97;;
781;SDS011;374;52.568;13.402;2022-11-15T15:37:24;25.80;;;20.80;;
781;SDS011;374;52.568;13.402;2022-11-15T15:39:58;27.00;;;21.10;;
781;SDS011;374;52.568;13.402;2022-11-15T15:42:28;25.50;;;19.90;;
781;SDS011;374;52.568;13.402;2022-11-15T15:44:56;26.43;;;21.63;;
781;SDS011;374;52.568;13.402;2022-11-15T15:47:34;27.20;;;21.97;;
781;SDS011;374;52.568;13.402;2022-11-15T15:50:15;27.23;;;21.30;;
781;SDS011;374;52.568;13.402;2022-11-15T15:52:59;26.67;;;22.30;;
781;SDS011;374;52.568;13.402;2022-11-15T15:55:45;30.47;;;22.70;;
781;SDS011;374;52.568;13.402;2022-11-15T15:58:11;29.47;;;22.67;;
781;SDS011;374;52.568;13.402;2022-11-15T16:00:50;33.87;;;25.20;;
781;SDS011;374;52.568;13.402;2022-11-15T16:03:15;32.73;;;23.47;;
781;SDS011;374;52.568;13.402;2022-11-15T16:05:41;30.07;;;22.47;;
781;SDS011;374;52.568;13.402;2022-11-15T16:08:16;27.23;;;21.40;;
781;SDS011;374;52.568;13.402;2022-11-15T16:10:43;26.33;;;20.43;;
781;SDS011;374;52.568;13.402;2022-11-15T16:13:08;26.57;;;20.40;;
781;SDS011;374;52.568;13.402;2022-11-15T16:15:34;25.40;;;22.00;;
781;SDS011;374;52.568;13.402;2022-11-15T16:18:00;27.63;;;21.50;;
781;SDS011;374;52.568;13.402;2022-11-15T16:20:40;27.20;;;21.17;;
781;SDS011;374;52.568;13.402;2022-11-15T16:23:14;30.70;;;22.10;;
781;SDS011;374;52.568;13.402;2022-11-15T16:25:42;27.60;;;21.33;;
781;SDS011;374;52.568;13.402;2022-11-15T16:28:18;27.77;;;23.13;;
781;SDS011;374;52.568;13.402;2022-11-15T16:30:44;29.50;;;23.43;;
781;SDS011;374;52.568;13.402;2022-11-15T16:33:10;25.00;;;20.60;;
781;SDS011;374;52.568;13.402;2022-11-15T16:35:35;29.47;;;22.57;;
781;SDS011;374;52.568;13.402;2022-11-15T16:38:01;29.03;;;22.30;;
781;SDS011;374;52.568;13.402;2022-11-15T16:40:28;29.97;;;22.77;;
781;SDS011;374;52.568;13.402;2022-11-15T16:42:55;29.40;;;22.93;;
781;SDS011;374;52.568;13.402;2022-11-15T16:45:22;28.47;;;23.13;;
781;SDS011;374;52.568;13.402;2022-11-15T16:47:48;32.40;;;24.27;;
781;SDS011;374;52.568;13.402;2022-11-15T16:50:18;29.80;;;23.30;;
781;SDS011;374;52.568;13.402;2022-11-15T16:52:53;34.27;;;25.00;;
781;SDS011;374;52.568;13.402;2022-11-15T16:55:20;30.43;;;23.67;;
781;SDS011;374;52.568;13.402;2022-11-15T16:57:48;32.70;;;25.10;;
781;SDS011;374;52.568;13.402;2022-11-15T17:00:14;32.87;;;25.87;;
781;SDS011;374;52.568;13.402;2022-11-15T17:02:42;35.53;;;25.80;;
781;SDS011;374;52.568;13.402;2022-11-15T17:05:09;32.00;;;25.93;;
781;SDS011;374;52.568;13.402;2022-11-15T17:07:35;36.00;;;27.13;;
781;SDS011;374;52.568;13.402;2022-11-15T17:10:00;35.13;;;26.07;;
781;SDS011;374;52.568;13.402;2022-11-15T17:12:26;34.57;;;26.00;;